Sentinel, Oklahoma
Current Conditions -  °F | °C
As of 8:53 AM on Saturday 20 Dec 2014 (Local Time) from KCSM Reporting Station
Overcast Overcast  
Wind Chill: 38°   Ceiling: 900
Heat Index: 43°   Visibility: 8mi
Dew Point: 38°   Wind: 9mph
Humidity: 82%   Direction: 200°SSW
Pressure: 30.18"   Gusts: NA
Location:  35.16°N, 99.18°W
Report Text: KCSM 201453Z AUTO 20008KT 8SM OVC009 06/03 A3018 RMK AO2 SLP224 T00610033 50001
Loading
Personal Weather Stations






























Interactive Weather Map New forecast layout! Learn more

10-Day Weather Forecast

Advertisements
Track Severe Weather on mobile